Terminal Aerodrome Forecast
Issued by NWS Quad Cities IA IL

Home | Current Version | Previous Version | Text Only | Print | Product List | Glossary On
Versions: 1 2 3 4 5 6 7 8 9 10 11 12 13 14 15 16 17 18
000
FTUS43 KDVN 250520
TAFDBQ
TAF
KDBQ 250520Z 2506/2606 09014KT P6SM VCSH OVC050
     FM250900 08014KT P6SM VCSH BKN035 OVC050
      TEMPO 2509/2511 4SM -SHRA BKN025 OVC040
     FM251100 09015G22KT 2SM -RA BR SCT009 OVC015
     FM251800 06014G21KT 6SM BR VCSH OVC020
     FM252100 04012KT P6SM SCT250=

USA.gov is the U.S. government's official web portal to all federal, state and local government web resources and services.